Terminal Aerodrome Forecast
Issued by NWS

Home | Current Version | Previous Version | Text Only | Print | Product List | Glossary On
Versions: 1 2 3 4 5 6 7 8 9 10 11 12 13 14 15 16 17 18 19 20 21 22 23 24 25 26 27 28
000
FTUS46 KSEW 222300 RRA
TAFBLI
TAF
KBLI 222350Z 2300/2324 14009KT P6SM -RA SCT018 OVC035
     FM230200 14009KT 5SM -RA BR BKN018 OVC030
     FM230600 17012KT P6SM -SHRA SCT018 BKN030 OVC050
     FM232100 17010KT P6SM -SHRA SCT030 BKN050 BKN090 PROB30
      2321/2324 5SM TSRA OVC025CB=

USA.gov is the U.S. government's official web portal to all federal, state and local government web resources and services.